Time;durP1;ratioP1;P1;durP2;ratioP2;P2;SDS_P1;SDS_P2;PMS_P1;PMS_P2;Temp;Humidity;BMP_temperature;BMP_pressure;BME280_temperature;BME280_humidity;BME280_pressure;Samples;Min_cycle;Max_cycle;Signal;HPM_P1;HPM_P2
2023/03/24 03:02:14;;;;;;;;;;;10.80;99.90;;;;;;5105899;28;1321;-75
2023/03/24 03:04:51;;;;;;;;;;;10.80;99.90;;;;;;5107440;28;1031;-75
2023/03/24 03:07:20;;;;;;;;;;;10.80;99.90;;;;;;5127999;27;1242;-75
2023/03/24 03:09:49;;;;;;;;;;;10.80;99.90;;;;;;5112566;28;1120;-75
2023/03/24 03:12:16;;;;;;;;;;;10.80;99.90;;;;;;5093042;28;1118;-75
2023/03/24 03:14:46;;;;;;;;;;;10.90;99.90;;;;;;5093667;28;1913;-75
2023/03/24 03:17:14;;;;;;;;;;;10.90;99.90;;;;;;5111617;28;1102;-75
2023/03/24 03:19:43;;;;;;;;;;;10.90;99.90;;;;;;5112150;28;1140;-76
2023/03/24 03:22:14;;;;;;;;;;;10.90;99.90;;;;;;5098393;28;1216;-75
2023/03/24 03:24:41;;;;;;;;;;;10.90;99.90;;;;;;5111430;27;1148;-75
2023/03/24 03:27:09;;;;;;;;;;;10.90;99.90;;;;;;5136293;27;1253;-76
2023/03/24 03:29:38;;;;;;;;;;;10.90;99.90;;;;;;5132381;27;1063;-76
2023/03/24 03:32:07;;;;;;;;;;;10.90;99.90;;;;;;5111472;28;1237;-75
2023/03/24 03:34:43;;;;;;;;;;;11.00;99.90;;;;;;5112059;27;1913;-75
2023/03/24 03:37:15;;;;;;;;;;;11.00;99.90;;;;;;5130544;27;1183;-75
2023/03/24 03:39:44;;;;;;;;;;;11.00;99.90;;;;;;5079237;28;1066;-74
2023/03/24 03:42:11;;;;;;;;;;;10.90;99.90;;;;;;5108682;28;1188;-75
2023/03/24 03:44:37;;;;;;;;;;;11.00;99.90;;;;;;5093363;28;1100;-75
2023/03/24 03:47:03;;;;;;;;;;;11.00;99.90;;;;;;5092718;28;1086;-74
2023/03/24 03:49:40;;;;;;;;;;;11.00;99.90;;;;;;5076807;28;1318;-74
2023/03/24 03:52:06;;;;;;;;;;;10.90;99.90;;;;;;5093053;28;1073;-74
2023/03/24 03:54:33;;;;;;;;;;;10.80;99.90;;;;;;5110236;28;1910;-75
2023/03/24 03:56:59;;;;;;;;;;;10.90;99.90;;;;;;5111333;28;1128;-76
2023/03/24 03:59:32;;;;;;;;;;;10.90;99.90;;;;;;5092645;28;1176;-77
2023/03/24 04:02:12;;;;;;;;;;;10.90;99.90;;;;;;5076223;28;1102;-77
2023/03/24 04:04:44;;;;;;;;;;;10.90;99.90;;;;;;5092533;28;1053;-78
2023/03/24 04:07:27;;;;;;;;;;;11.00;99.90;;;;;;5092201;28;1257;-77
2023/03/24 04:10:18;;;;;;;;;;;10.70;99.90;;;;;;5093342;28;1092;-77
2023/03/24 04:13:02;;;;;;;;;;;10.50;99.90;;;;;;5080119;27;1272;-77
2023/03/24 04:15:55;;;;;;;;;;;10.50;99.90;;;;;;5131559;27;1905;-78
2023/03/24 04:18:52;;;;;;;;;;;10.40;99.90;;;;;;5130541;27;1099;-77
2023/03/24 04:21:27;;;;;;;;;;;10.20;99.90;;;;;;5107656;28;1279;-77
2023/03/24 04:24:01;;;;;;;;;;;10.10;99.90;;;;;;5093056;28;1191;-77
2023/03/24 04:26:33;;;;;;;;;;;10.00;99.90;;;;;;5093039;28;1085;-77
2023/03/24 04:29:03;;;;;;;;;;;9.90;99.90;;;;;;5074844;28;1149;-77
2023/03/24 04:31:33;;;;;;;;;;;9.90;99.90;;;;;;5110629;28;1161;-77
2023/03/24 04:34:03;;;;;;;;;;;9.80;99.90;;;;;;5075116;28;1910;-77
2023/03/24 04:36:41;;;;;;;;;;;9.80;99.90;;;;;;5111785;27;1100;-76
2023/03/24 04:39:27;;;;;;;;;;;9.80;99.90;;;;;;5062435;28;1185;-76
2023/03/24 04:41:55;;;;;;;;;;;9.80;99.90;;;;;;5076020;27;1632;-76
2023/03/24 04:44:25;;;;;;;;;;;9.70;99.90;;;;;;5129653;27;1096;-76
2023/03/24 04:47:11;;;;;;;;;;;9.70;99.90;;;;;;5112728;27;1342;-76
2023/03/24 04:49:39;;;;;;;;;;;9.60;99.90;;;;;;5118808;27;1208;-76
2023/03/24 04:52:05;;;;;;;;;;;9.60;99.90;;;;;;5091821;28;1077;-76
2023/03/24 04:54:32;;;;;;;;;;;9.60;99.90;;;;;;5091979;28;1910;-76
2023/03/24 04:57:04;;;;;;;;;;;9.40;99.90;;;;;;5092957;28;1113;-76
2023/03/24 04:59:36;;;;;;;;;;;9.40;99.90;;;;;;5092066;28;1124;-75
2023/03/24 05:02:04;;;;;;;;;;;9.30;99.90;;;;;;5088509;28;1220;-75
2023/03/24 05:04:35;;;;;;;;;;;9.20;99.90;;;;;;5089601;28;1092;-75
2023/03/24 05:07:07;;;;;;;;;;;9.10;99.90;;;;;;5061996;28;1138;-76
2023/03/24 05:09:33;;;;;;;;;;;9.10;99.90;;;;;;5089368;28;1148;-76
2023/03/24 05:12:01;;;;;;;;;;;9.10;99.90;;;;;;5072133;28;1093;-76
2023/03/24 05:14:28;;;;;;;;;;;9.20;99.90;;;;;;5084663;28;1973;-76
2023/03/24 05:16:54;;;;;;;;;;;9.10;99.90;;;;;;5089683;28;1081;-76
2023/03/24 05:19:22;;;;;;;;;;;9.00;99.90;;;;;;5089009;28;1297;-76
2023/03/24 05:21:49;;;;;;;;;;;9.00;99.90;;;;;;5089343;28;1307;-77
2023/03/24 05:24:15;;;;;;;;;;;9.10;99.90;;;;;;5087664;28;1144;-77
2023/03/24 05:26:41;;;;;;;;;;;9.00;99.90;;;;;;5071307;28;1844;-77
2023/03/24 05:29:12;;;;;;;;;;;9.00;99.90;;;;;;5087050;28;1040;-77
2023/03/24 05:31:39;;;;;;;;;;;9.00;99.90;;;;;;5101018;28;1099;-76
2023/03/24 05:34:08;;;;;;;;;;;9.00;99.90;;;;;;5087871;28;1981;-76
2023/03/24 05:36:45;;;;;;;;;;;9.00;99.90;;;;;;5121631;27;1166;-76
2023/03/24 05:39:13;;;;;;;;;;;9.00;99.90;;;;;;5107569;28;1203;-76
2023/03/24 05:41:49;;;;;;;;;;;8.90;99.90;;;;;;5093530;28;1401;-76
2023/03/24 05:44:14;;;;;;;;;;;8.90;99.90;;;;;;5087447;28;1100;-76
2023/03/24 05:46:43;;;;;;;;;;;8.90;99.90;;;;;;5087413;28;1196;-76
2023/03/24 05:49:09;;;;;;;;;;;8.90;99.90;;;;;;5088228;28;1089;-76
2023/03/24 05:51:39;;;;;;;;;;;8.90;99.90;;;;;;5088391;28;1062;-76
2023/03/24 05:54:06;;;;;;;;;;;8.90;99.90;;;;;;5087471;28;1977;-76
2023/03/24 05:56:35;;;;;;;;;;;9.00;99.90;;;;;;5087863;28;1105;-76
2023/03/24 05:59:10;;;;;;;;;;;9.00;99.90;;;;;;5086786;28;1147;-76
2023/03/24 06:02:06;;;;;;;;;;;9.00;99.90;;;;;;5119117;28;1166;-76
2023/03/24 06:04:45;;;;;;;;;;;9.10;99.90;;;;;;5106940;28;1147;-76
2023/03/24 06:07:14;;;;;;;;;;;9.20;99.90;;;;;;5099415;28;1231;-76
2023/03/24 06:09:45;;;;;;;;;;;9.20;99.90;;;;;;5117538;28;1309;-76
2023/03/24 06:12:13;;;;;;;;;;;9.30;99.90;;;;;;5098978;28;1266;-76
2023/03/24 06:14:47;;;;;;;;;;;9.30;99.90;;;;;;5097491;28;1905;-76
2023/03/24 06:17:15;;;;;;;;;;;9.30;99.90;;;;;;5098597;28;1290;-76
2023/03/24 06:19:50;;;;;;;;;;;9.30;99.90;;;;;;5116830;27;1210;-76
2023/03/24 06:22:36;;;;;;;;;;;9.40;99.90;;;;;;5095046;28;1366;-75
2023/03/24 06:25:05;;;;;;;;;;;9.40;99.90;;;;;;5094675;28;1077;-75
2023/03/24 06:27:31;;;;;;;;;;;9.40;99.90;;;;;;5080390;27;1085;-76
2023/03/24 06:29:58;;;;;;;;;;;9.40;99.90;;;;;;5110982;28;1491;-75
2023/03/24 06:32:24;;;;;;;;;;;9.50;99.90;;;;;;5094698;28;1172;-76
2023/03/24 06:34:50;;;;;;;;;;;9.40;99.90;;;;;;5093560;28;1963;-75
2023/03/24 06:37:29;;;;;;;;;;;9.40;99.90;;;;;;5077743;28;1219;-75
2023/03/24 06:39:56;;;;;;;;;;;9.40;99.90;;;;;;5094843;28;1184;-75
2023/03/24 06:42:26;;;;;;;;;;;9.40;99.90;;;;;;5081916;28;1132;-76
2023/03/24 06:44:52;;;;;;;;;;;9.50;99.90;;;;;;5136246;27;1208;-76
2023/03/24 06:47:17;;;;;;;;;;;9.50;99.90;;;;;;5102216;28;1099;-75
2023/03/24 06:49:45;;;;;;;;;;;9.40;99.90;;;;;;5102625;28;1239;-76
2023/03/24 06:52:11;;;;;;;;;;;9.40;99.90;;;;;;5102103;28;1142;-75
2023/03/24 06:54:39;;;;;;;;;;;9.40;99.90;;;;;;5077272;28;1913;-75
2023/03/24 06:57:06;;;;;;;;;;;9.50;99.90;;;;;;5076401;28;1649;-75
2023/03/24 06:59:52;;;;;;;;;;;9.50;99.90;;;;;;5094087;28;1313;-75
2023/03/24 07:02:19;;;;;;;;;;;9.40;99.90;;;;;;5102176;28;1353;-76
2023/03/24 07:04:47;;;;;;;;;;;9.40;99.90;;;;;;5094205;28;1104;-76
2023/03/24 07:07:23;;;;;;;;;;;9.40;99.90;;;;;;5094278;28;1294;-75
2023/03/24 07:10:05;;;;;;;;;;;9.40;99.90;;;;;;5095524;28;1133;-76
2023/03/24 07:12:31;;;;;;;;;;;9.50;99.90;;;;;;5094215;28;1128;-75
2023/03/24 07:14:56;;;;;;;;;;;9.60;99.90;;;;;;5094141;28;1905;-75
2023/03/24 07:17:22;;;;;;;;;;;9.50;99.90;;;;;;5093600;28;1150;-76
2023/03/24 07:20:07;;;;;;;;;;;9.50;99.90;;;;;;5083955;28;1142;-76
2023/03/24 07:22:39;;;;;;;;;;;9.50;99.90;;;;;;5112153;28;1307;-76
2023/03/24 07:25:24;;;;;;;;;;;9.60;99.90;;;;;;5111750;28;1124;-76
2023/03/24 07:27:58;;;;;;;;;;;9.60;99.90;;;;;;5077877;28;1271;-76
2023/03/24 07:30:24;;;;;;;;;;;9.60;99.90;;;;;;5075090;28;1286;-76
2023/03/24 07:32:53;;;;;;;;;;;9.70;99.90;;;;;;5112222;28;1155;-76
2023/03/24 07:35:19;;;;;;;;;;;9.70;99.90;;;;;;5092948;28;1976;-75
2023/03/24 07:37:45;;;;;;;;;;;9.70;99.90;;;;;;5104188;28;1141;-76
2023/03/24 07:40:12;;;;;;;;;;;9.70;99.90;;;;;;5076642;28;1442;-75
2023/03/24 07:42:38;;;;;;;;;;;9.70;99.90;;;;;;5092992;28;1146;-76
2023/03/24 07:45:22;;;;;;;;;;;9.80;99.90;;;;;;5131094;27;1149;-76
2023/03/24 07:47:48;;;;;;;;;;;9.80;99.90;;;;;;5093809;28;1112;-76
2023/03/24 07:50:14;;;;;;;;;;;9.70;99.90;;;;;;5092919;27;1151;-76
2023/03/24 07:52:41;;;;;;;;;;;9.80;99.90;;;;;;5131956;27;1111;-76
2023/03/24 07:55:10;;;;;;;;;;;9.80;99.90;;;;;;5079763;28;1963;-76
2023/03/24 07:57:57;;;;;;;;;;;9.80;99.90;;;;;;5111144;28;1332;-76
2023/03/24 08:00:25;;;;;;;;;;;9.90;99.90;;;;;;5075928;28;1124;-76
2023/03/24 08:03:03;;;;;;;;;;;9.90;99.90;;;;;;5098652;27;1281;-76
2023/03/24 08:06:01;;;;;;;;;;;9.90;99.90;;;;;;5101480;28;1112;-76
2023/03/24 08:08:30;;;;;;;;;;;9.90;99.90;;;;;;5079870;28;1327;-76
2023/03/24 08:10:56;;;;;;;;;;;9.90;99.90;;;;;;5110447;28;1154;-76
2023/03/24 08:13:22;;;;;;;;;;;9.90;99.90;;;;;;5086402;27;1124;-76
2023/03/24 08:15:48;;;;;;;;;;;10.00;99.90;;;;;;5132049;27;1960;-76
2023/03/24 08:18:13;;;;;;;;;;;10.00;99.90;;;;;;5147336;27;1159;-76
2023/03/24 08:20:39;;;;;;;;;;;10.10;99.90;;;;;;5122970;27;1087;-76
2023/03/24 08:23:05;;;;;;;;;;;10.10;99.90;;;;;;5110940;28;1287;-76
2023/03/24 08:25:31;;;;;;;;;;;10.10;99.90;;;;;;5110561;28;1105;-76
2023/03/24 08:27:56;;;;;;;;;;;10.10;99.90;;;;;;5117363;27;1246;-76
2023/03/24 08:30:23;;;;;;;;;;;10.20;99.90;;;;;;5116380;27;1109;-80
2023/03/24 08:32:50;;;;;;;;;;;10.20;99.90;;;;;;5110642;28;1159;-76
2023/03/24 08:35:17;;;;;;;;;;;10.30;99.90;;;;;;5110024;28;1923;-76
2023/03/24 08:37:44;;;;;;;;;;;10.40;99.90;;;;;;5098999;28;1224;-76
2023/03/24 08:40:12;;;;;;;;;;;10.50;99.90;;;;;;5110740;27;1345;-76
2023/03/24 08:42:38;;;;;;;;;;;10.50;99.90;;;;;;5091469;28;1100;-76
2023/03/24 08:45:04;;;;;;;;;;;10.60;99.90;;;;;;5110609;28;1136;-76
2023/03/24 08:47:30;;;;;;;;;;;10.60;99.90;;;;;;5105776;28;3584;-76
2023/03/24 08:49:57;;;;;;;;;;;10.80;99.90;;;;;;5096819;28;3874;-76
2023/03/24 08:52:23;;;;;;;;;;;10.70;99.90;;;;;;5104665;28;1200;-76
2023/03/24 08:54:49;;;;;;;;;;;10.70;99.90;;;;;;5098392;28;3424;-76
2023/03/24 08:57:16;;;;;;;;;;;10.80;99.90;;;;;;5102677;28;1208;-76
2023/03/24 08:59:41;;;;;;;;;;;10.80;99.90;;;;;;5122743;27;1137;-76
2023/03/24 09:02:10;;;;;;;;;;;11.00;99.90;;;;;;5102472;28;1304;-76
2023/03/24 09:04:36;;;;;;;;;;;11.00;99.90;;;;;;5095550;27;1325;-76
2023/03/24 09:07:02;;;;;;;;;;;11.00;99.90;;;;;;5107797;27;3026;-76
2023/03/24 09:09:28;;;;;;;;;;;11.10;99.90;;;;;;5103530;27;1031;-76
2023/03/24 09:11:54;;;;;;;;;;;11.30;99.90;;;;;;5107801;28;1185;-76
2023/03/24 09:14:21;;;;;;;;;;;11.50;99.90;;;;;;5091798;28;2012;-76
2023/03/24 09:16:48;;;;;;;;;;;11.70;99.90;;;;;;5103624;28;1157;-76
2023/03/24 09:19:13;;;;;;;;;;;11.90;99.90;;;;;;5108344;27;1192;-76
2023/03/24 09:21:41;;;;;;;;;;;12.00;99.90;;;;;;5086623;28;1368;-76
2023/03/24 09:24:07;;;;;;;;;;;11.90;99.90;;;;;;5100739;28;1204;-77
2023/03/24 09:26:33;;;;;;;;;;;11.60;99.90;;;;;;5081783;28;1158;-76
2023/03/24 09:28:58;;;;;;;;;;;11.30;99.90;;;;;;5101321;28;1128;-76
2023/03/24 09:31:24;;;;;;;;;;;11.20;99.90;;;;;;5103946;28;1411;-76
2023/03/24 09:33:50;;;;;;;;;;;11.30;99.90;;;;;;5096301;28;1953;-76
2023/03/24 09:36:16;;;;;;;;;;;11.30;99.90;;;;;;5099766;28;1225;-75
2023/03/24 09:38:41;;;;;;;;;;;11.50;99.90;;;;;;5092115;28;1442;-76
2023/03/24 09:41:15;;;;;;;;;;;11.70;99.90;;;;;;5100871;28;1279;-76
2023/03/24 09:43:43;;;;;;;;;;;11.70;99.90;;;;;;5099044;28;1318;-76
2023/03/24 09:46:11;;;;;;;;;;;11.60;99.90;;;;;;5098407;28;1125;-76
2023/03/24 09:48:41;;;;;;;;;;;11.60;99.90;;;;;;5098684;28;1247;-75
2023/03/24 09:51:11;;;;;;;;;;;11.60;99.90;;;;;;5092971;28;1209;-75
2023/03/24 09:53:45;;;;;;;;;;;11.50;99.90;;;;;;5103898;28;1324;-75
2023/03/24 09:56:12;;;;;;;;;;;11.40;99.90;;;;;;5103353;27;1188;-75
2023/03/24 09:58:40;;;;;;;;;;;11.60;99.90;;;;;;5101177;28;1445;-75
2023/03/24 10:01:11;;;;;;;;;;;11.90;99.90;;;;;;5095616;28;1221;-75
2023/03/24 10:03:36;;;;;;;;;;;12.10;99.90;;;;;;5111541;28;1449;-76
2023/03/24 10:06:14;;;;;;;;;;;11.90;99.90;;;;;;5107940;28;1282;-75
2023/03/24 10:08:41;;;;;;;;;;;11.60;99.90;;;;;;5122526;27;1235;-75
2023/03/24 10:11:07;;;;;;;;;;;11.50;99.90;;;;;;5106038;28;1259;-75
2023/03/24 10:13:34;;;;;;;;;;;11.40;99.90;;;;;;5093789;28;1203;-75
2023/03/24 10:16:06;;;;;;;;;;;11.20;99.90;;;;;;5127097;27;1922;-75
2023/03/24 10:18:38;;;;;;;;;;;11.20;99.90;;;;;;5103375;28;1299;-75
2023/03/24 10:21:11;;;;;;;;;;;11.30;99.90;;;;;;5103256;28;1200;-75
2023/03/24 10:23:49;;;;;;;;;;;11.50;99.90;;;;;;5108620;28;1223;-75
2023/03/24 10:26:23;;;;;;;;;;;11.90;99.90;;;;;;5099211;28;1406;-75
2023/03/24 10:28:51;;;;;;;;;;;12.30;99.90;;;;;;5092288;28;1223;-76
2023/03/24 10:31:20;;;;;;;;;;;12.70;99.90;;;;;;5101566;28;1225;-75
2023/03/24 10:33:46;;;;;;;;;;;13.20;99.90;;;;;;5123698;27;1177;-78
2023/03/24 10:36:13;;;;;;;;;;;13.60;99.90;;;;;;5105192;28;1330;-78
2023/03/24 10:38:40;;;;;;;;;;;13.90;99.90;;;;;;5105164;28;1311;-78
2023/03/24 10:41:06;;;;;;;;;;;14.00;99.90;;;;;;5103165;28;1208;-78
2023/03/24 10:43:32;;;;;;;;;;;13.90;99.90;;;;;;5105165;28;1342;-75
2023/03/24 10:45:58;;;;;;;;;;;14.20;99.90;;;;;;5097354;28;1246;-75
2023/03/24 10:48:44;;;;;;;;;;;14.40;99.90;;;;;;5101609;28;1094;-75
2023/03/24 10:51:12;;;;;;;;;;;14.60;99.90;;;;;;5097695;28;1296;-75
2023/03/24 10:53:38;;;;;;;;;;;14.80;99.90;;;;;;5086805;28;1295;-76
2023/03/24 10:56:04;;;;;;;;;;;14.70;99.90;;;;;;5105638;28;1910;-75
2023/03/24 10:58:36;;;;;;;;;;;14.30;99.90;;;;;;5085000;28;1498;-75
2023/03/24 11:01:02;;;;;;;;;;;14.70;99.90;;;;;;5101519;28;1431;-75
2023/03/24 11:03:30;;;;;;;;;;;14.40;99.90;;;;;;5104108;28;1622;-75
2023/03/24 11:05:58;;;;;;;;;;;14.80;99.90;;;;;;5108809;28;1301;-75
2023/03/24 11:08:31;;;;;;;;;;;15.00;99.90;;;;;;5090368;28;1085;-75
2023/03/24 11:10:57;;;;;;;;;;;15.20;99.90;;;;;;5102794;28;1442;-75
2023/03/24 11:13:24;;;;;;;;;;;15.40;99.90;;;;;;5108937;28;1288;-75
2023/03/24 11:15:52;;;;;;;;;;;15.10;99.90;;;;;;5106471;28;1972;-75
2023/03/24 11:18:19;;;;;;;;;;;15.10;99.90;;;;;;5108042;27;1124;-75
2023/03/24 11:20:46;;;;;;;;;;;15.20;99.90;;;;;;5098998;28;1266;-75
2023/03/24 11:23:15;;;;;;;;;;;15.10;99.90;;;;;;5107688;27;1287;-75
2023/03/24 11:25:43;;;;;;;;;;;15.30;99.90;;;;;;5109440;27;997;-75
2023/03/24 11:28:13;;;;;;;;;;;15.50;99.90;;;;;;5102975;28;1240;-75
2023/03/24 11:30:45;;;;;;;;;;;15.70;99.90;;;;;;5106473;27;1145;-75
2023/03/24 11:33:17;;;;;;;;;;;15.10;99.90;;;;;;5097939;28;1224;-75
2023/03/24 11:35:43;;;;;;;;;;;15.50;99.90;;;;;;5130541;27;1910;-75
2023/03/24 11:38:14;;;;;;;;;;;15.90;99.90;;;;;;5121921;27;1008;-75
2023/03/24 11:40:51;;;;;;;;;;;15.10;99.70;;;;;;5127582;27;1353;-75
2023/03/24 11:43:19;;;;;;;;;;;14.70;99.90;;;;;;5124602;27;1088;-75
2023/03/24 11:45:51;;;;;;;;;;;14.30;99.90;;;;;;5110740;28;1232;-75
2023/03/24 11:48:22;;;;;;;;;;;14.40;99.90;;;;;;5111766;28;1136;-75
2023/03/24 11:50:49;;;;;;;;;;;14.80;99.90;;;;;;5093004;28;1215;-75
2023/03/24 11:53:18;;;;;;;;;;;15.30;99.90;;;;;;5092722;28;1117;-75
2023/03/24 11:55:56;;;;;;;;;;;15.10;99.90;;;;;;5111456;28;1969;-75
2023/03/24 11:58:32;;;;;;;;;;;14.70;99.90;;;;;;5107800;28;3544;-75
2023/03/24 12:01:03;;;;;;;;;;;14.20;99.90;;;;;;5123373;27;3907;-75
2023/03/24 12:03:40;;;;;;;;;;;14.30;99.90;;;;;;5107558;28;1178;-75
2023/03/24 12:06:06;;;;;;;;;;;15.10;99.90;;;;;;5105770;28;3457;-75
2023/03/24 12:08:48;;;;;;;;;;;15.60;98.90;;;;;;5097776;28;1419;-75
2023/03/24 12:11:19;;;;;;;;;;;15.70;96.70;;;;;;5087643;28;1352;-75
2023/03/24 12:13:48;;;;;;;;;;;15.90;94.60;;;;;;5092380;28;1164;-75
2023/03/24 12:16:19;;;;;;;;;;;16.00;96.20;;;;;;5090664;28;1971;-75
2023/03/24 12:19:13;;;;;;;;;;;16.30;96.70;;;;;;5116142;27;1108;-75
2023/03/24 12:21:39;;;;;;;;;;;16.10;93.10;;;;;;5108772;28;1259;-75
2023/03/24 12:24:13;;;;;;;;;;;15.50;96.70;;;;;;5130037;27;1723;-75
2023/03/24 12:26:39;;;;;;;;;;;15.80;94.90;;;;;;5109840;27;1218;-75
2023/03/24 12:29:14;;;;;;;;;;;16.00;95.00;;;;;;5100536;27;1219;-75
2023/03/24 12:31:46;;;;;;;;;;;15.70;92.90;;;;;;5098497;28;1361;-75
2023/03/24 12:34:12;;;;;;;;;;;15.90;93.60;;;;;;5090672;28;1941;-75
2023/03/24 12:36:37;;;;;;;;;;;16.20;96.20;;;;;;5094163;28;3625;-75
2023/03/24 12:39:08;;;;;;;;;;;16.80;94.50;;;;;;5112696;27;3413;-75
2023/03/24 12:41:40;;;;;;;;;;;16.40;94.00;;;;;;5109106;28;3557;-75
2023/03/24 12:44:05;;;;;;;;;;;16.10;96.20;;;;;;5109761;27;1204;-75
2023/03/24 12:46:37;;;;;;;;;;;15.90;93.60;;;;;;5103711;28;1191;-75
2023/03/24 12:49:03;;;;;;;;;;;16.40;95.10;;;;;;5109973;27;1167;-75
2023/03/24 12:51:37;;;;;;;;;;;16.70;95.90;;;;;;5099927;28;1081;-75
2023/03/24 12:54:17;;;;;;;;;;;16.20;96.60;;;;;;5110280;28;1969;-75
2023/03/24 12:56:45;;;;;;;;;;;15.50;96.60;;;;;;5109307;28;1135;-75
2023/03/24 12:59:14;;;;;;;;;;;15.10;98.30;;;;;;5091742;28;1077;-75
2023/03/24 13:01:42;;;;;;;;;;;14.60;99.90;;;;;;5091376;28;1112;-74
2023/03/24 13:04:08;;;;;;;;;;;15.10;99.60;;;;;;5108276;28;1231;-74
2023/03/24 13:06:37;;;;;;;;;;;15.50;99.90;;;;;;5110106;28;1322;-74
2023/03/24 13:09:10;;;;;;;;;;;15.90;98.80;;;;;;5110161;28;1084;-75
2023/03/24 13:11:40;;;;;;;;;;;16.50;97.20;;;;;;5110124;28;1152;-75
2023/03/24 13:14:10;;;;;;;;;;;15.90;99.00;;;;;;5132049;27;1976;-75
2023/03/24 13:16:36;;;;;;;;;;;16.10;98.20;;;;;;5125202;27;1109;-74
2023/03/24 13:19:03;;;;;;;;;;;16.40;96.50;;;;;;5110005;28;1097;-75
2023/03/24 13:21:32;;;;;;;;;;;16.40;96.20;;;;;;5090654;28;1265;-75
2023/03/24 13:24:00;;;;;;;;;;;16.30;96.60;;;;;;5109437;28;1163;-75
2023/03/24 13:26:37;;;;;;;;;;;16.00;97.00;;;;;;5091492;28;1097;-75
2023/03/24 13:29:02;;;;;;;;;;;16.30;96.40;;;;;;5123134;27;1046;-75
2023/03/24 13:31:35;;;;;;;;;;;16.20;93.60;;;;;;5113238;27;1254;-74
2023/03/24 13:34:02;;;;;;;;;;;15.70;95.20;;;;;;5109131;28;1985;-74
2023/03/24 13:36:41;;;;;;;;;;;16.20;95.20;;;;;;5099092;28;1107;-75
2023/03/24 13:39:12;;;;;;;;;;;16.00;95.70;;;;;;5110940;27;1218;-75
2023/03/24 13:41:39;;;;;;;;;;;15.30;93.20;;;;;;5130681;27;1356;-74
2023/03/24 13:44:08;;;;;;;;;;;15.60;94.90;;;;;;5095741;28;1184;-75
2023/03/24 13:46:36;;;;;;;;;;;15.70;94.60;;;;;;5111235;27;1239;-74
2023/03/24 13:49:04;;;;;;;;;;;15.60;94.70;;;;;;5108289;27;1131;-74
2023/03/24 13:51:31;;;;;;;;;;;15.40;96.60;;;;;;5107484;28;1271;-74
2023/03/24 13:54:02;;;;;;;;;;;14.70;97.10;;;;;;5131354;27;1909;-74
2023/03/24 13:56:33;;;;;;;;;;;14.70;99.90;;;;;;5130611;27;1204;-74
2023/03/24 13:59:02;;;;;;;;;;;14.60;99.90;;;;;;5108664;28;1214;-74
2023/03/24 14:01:32;;;;;;;;;;;14.90;98.40;;;;;;5098195;27;1302;-74
2023/03/24 14:04:19;;;;;;;;;;;15.20;98.50;;;;;;5103539;28;3877;-74
2023/03/24 14:06:47;;;;;;;;;;;15.90;95.70;;;;;;5106662;28;3204;-74
2023/03/24 14:09:17;;;;;;;;;;;16.40;95.40;;;;;;5109298;28;1147;-75
2023/03/24 14:11:44;;;;;;;;;;;16.60;96.50;;;;;;5089926;28;3103;-75
2023/03/24 14:14:11;;;;;;;;;;;16.60;90.50;;;;;;5107513;28;1957;-75
2023/03/24 14:16:48;;;;;;;;;;;16.00;91.80;;;;;;5123945;28;1095;-74
2023/03/24 14:19:19;;;;;;;;;;;15.90;91.80;;;;;;5102319;28;1150;-74
2023/03/24 14:21:51;;;;;;;;;;;15.90;93.60;;;;;;5108401;28;1295;-74
2023/03/24 14:24:25;;;;;;;;;;;16.30;92.40;;;;;;5108326;28;1131;-74
2023/03/24 14:26:50;;;;;;;;;;;16.60;91.90;;;;;;5108501;28;1195;-74
2023/03/24 14:29:32;;;;;;;;;;;16.80;94.40;;;;;;5090072;28;1045;-75
2023/03/24 14:32:01;;;;;;;;;;;15.90;95.20;;;;;;5090717;28;1089;-75
2023/03/24 14:34:27;;;;;;;;;;;15.70;94.90;;;;;;5120443;28;2032;-75
2023/03/24 14:36:58;;;;;;;;;;;15.60;96.80;;;;;;5108454;28;1077;-75
2023/03/24 14:39:35;;;;;;;;;;;14.90;97.20;;;;;;5112244;27;1108;-74
2023/03/24 14:42:20;;;;;;;;;;;14.90;99.40;;;;;;5116687;27;1345;-74
2023/03/24 14:44:48;;;;;;;;;;;14.90;98.80;;;;;;5094659;28;1252;-74
2023/03/24 14:47:15;;;;;;;;;;;15.10;98.40;;;;;;5112771;28;1001;-75
2023/03/24 14:49:42;;;;;;;;;;;15.20;98.40;;;;;;5112546;28;1168;-74
2023/03/24 14:52:11;;;;;;;;;;;15.40;97.70;;;;;;5112541;28;1167;-75
2023/03/24 14:54:42;;;;;;;;;;;14.90;98.10;;;;;;5112469;28;1972;-75
2023/03/24 14:57:15;;;;;;;;;;;14.60;98.50;;;;;;5112717;28;1175;-74
2023/03/24 14:59:46;;;;;;;;;;;14.10;99.90;;;;;;5105510;27;1093;-74
2023/03/24 15:02:28;;;;;;;;;;;14.00;99.90;;;;;;5114375;27;1776;-74
2023/03/24 15:05:12;;;;;;;;;;;14.30;99.90;;;;;;5135241;27;1169;-74
2023/03/24 15:07:38;;;;;;;;;;;14.60;99.90;;;;;;5089450;28;1033;-75
2023/03/24 15:10:04;;;;;;;;;;;15.10;99.90;;;;;;5132546;27;1171;-74
2023/03/24 15:12:30;;;;;;;;;;;15.20;98.40;;;;;;5120074;27;1266;-74
2023/03/24 15:14:56;;;;;;;;;;;14.70;99.90;;;;;;5112824;27;1983;-74
2023/03/24 15:17:23;;;;;;;;;;;14.20;99.90;;;;;;5106272;28;3591;-74
2023/03/24 15:19:51;;;;;;;;;;;13.50;99.90;;;;;;5127335;27;3633;-74
2023/03/24 15:22:18;;;;;;;;;;;13.40;99.90;;;;;;5108204;28;3685;-74
2023/03/24 15:24:46;;;;;;;;;;;13.30;99.90;;;;;;5076146;28;1112;-74
2023/03/24 15:27:17;;;;;;;;;;;13.30;99.90;;;;;;5124133;27;1116;-74
2023/03/24 15:29:43;;;;;;;;;;;13.40;99.90;;;;;;5110997;28;1168;-74
2023/03/24 15:32:18;;;;;;;;;;;13.30;99.90;;;;;;5111688;28;1085;-74
2023/03/24 15:34:50;;;;;;;;;;;13.40;99.90;;;;;;5104808;28;3627;-74
2023/03/24 15:37:23;;;;;;;;;;;13.50;99.90;;;;;;5107685;28;1105;-74
2023/03/24 15:39:50;;;;;;;;;;;13.80;99.90;;;;;;5111241;28;1105;-74
2023/03/24 15:42:17;;;;;;;;;;;13.90;99.90;;;;;;5093336;28;1457;-74
2023/03/24 15:44:43;;;;;;;;;;;14.10;99.90;;;;;;5127128;27;1329;-74
2023/03/24 15:47:15;;;;;;;;;;;13.80;99.90;;;;;;5111718;28;1100;-74
2023/03/24 15:49:46;;;;;;;;;;;13.90;99.90;;;;;;5084861;28;1190;-74
2023/03/24 15:52:24;;;;;;;;;;;14.10;99.90;;;;;;5109772;28;1187;-75
2023/03/24 15:54:51;;;;;;;;;;;14.50;99.30;;;;;;5111525;28;1969;-74
2023/03/24 15:57:17;;;;;;;;;;;15.00;97.50;;;;;;5110237;28;1109;-74
2023/03/24 15:59:46;;;;;;;;;;;14.60;99.20;;;;;;5112234;27;1089;-74
2023/03/24 16:02:16;;;;;;;;;;;14.60;99.10;;;;;;5110806;28;1122;-74
2023/03/24 16:04:42;;;;;;;;;;;14.40;99.90;;;;;;5103411;27;1955;-74
2023/03/24 16:07:22;;;;;;;;;;;14.80;99.90;;;;;;5110264;28;1353;-74
2023/03/24 16:09:53;;;;;;;;;;;15.00;99.90;;;;;;5106859;27;1111;-74
2023/03/24 16:12:19;;;;;;;;;;;14.70;99.90;;;;;;5084951;28;1388;-72
2023/03/24 16:14:45;;;;;;;;;;;13.90;99.90;;;;;;5110677;28;1913;-72
2023/03/24 16:17:11;;;;;;;;;;;13.50;99.90;;;;;;5113946;27;2372;-72
2023/03/24 16:19:37;;;;;;;;;;;13.20;99.90;;;;;;5090432;28;1726;-72
2023/03/24 16:22:09;;;;;;;;;;;12.80;99.90;;;;;;5111744;27;1675;-72
2023/03/24 16:24:34;;;;;;;;;;;12.60;99.90;;;;;;5076079;28;1089;-72
2023/03/24 16:27:00;;;;;;;;;;;12.50;99.90;;;;;;5109822;28;2174;-72
2023/03/24 16:29:26;;;;;;;;;;;12.90;99.90;;;;;;5111087;28;1215;-72
2023/03/24 16:31:54;;;;;;;;;;;13.50;99.90;;;;;;5110730;28;1151;-72
2023/03/24 16:34:20;;;;;;;;;;;14.10;99.90;;;;;;5109332;28;1976;-72
2023/03/24 16:36:47;;;;;;;;;;;14.20;99.90;;;;;;5109747;28;1095;-72
2023/03/24 16:39:15;;;;;;;;;;;13.80;99.90;;;;;;5111000;27;1307;-72
2023/03/24 16:41:41;;;;;;;;;;;13.50;99.90;;;;;;5110617;28;1096;-72
2023/03/24 16:44:06;;;;;;;;;;;13.10;99.90;;;;;;5130198;27;1135;-72
2023/03/24 16:46:33;;;;;;;;;;;12.70;99.90;;;;;;5103668;27;1101;-72
2023/03/24 16:48:59;;;;;;;;;;;12.50;99.90;;;;;;5110104;28;1156;-72
2023/03/24 16:51:26;;;;;;;;;;;12.30;99.90;;;;;;5110900;28;1088;-72
2023/03/24 16:53:51;;;;;;;;;;;12.10;99.90;;;;;;5109825;28;1210;-72
2023/03/24 16:56:19;;;;;;;;;;;12.10;99.90;;;;;;5109878;28;1906;-72
2023/03/24 16:58:46;;;;;;;;;;;12.10;99.90;;;;;;5110978;28;1128;-72
2023/03/24 17:01:25;;;;;;;;;;;12.10;99.90;;;;;;5110232;28;1151;-72
2023/03/24 17:03:55;;;;;;;;;;;12.10;99.90;;;;;;5099117;28;1210;-72
2023/03/24 17:06:21;;;;;;;;;;;12.10;99.90;;;;;;5091916;28;1359;-72
2023/03/24 17:08:47;;;;;;;;;;;12.30;99.90;;;;;;5091670;28;1087;-72
2023/03/24 17:11:14;;;;;;;;;;;12.40;99.90;;;;;;5109538;28;1200;-72
2023/03/24 17:13:40;;;;;;;;;;;12.50;99.90;;;;;;5099487;28;1088;-72
2023/03/24 17:16:08;;;;;;;;;;;12.50;99.90;;;;;;5109591;28;1905;-72
2023/03/24 17:18:38;;;;;;;;;;;12.40;99.90;;;;;;5109465;28;1122;-72
2023/03/24 17:21:10;;;;;;;;;;;12.30;99.90;;;;;;5111410;27;1289;-72
2023/03/24 17:23:36;;;;;;;;;;;12.10;99.90;;;;;;5109991;28;1250;-71
2023/03/24 17:26:01;;;;;;;;;;;12.00;99.90;;;;;;5110260;28;1219;-72
2023/03/24 17:28:27;;;;;;;;;;;11.80;99.90;;;;;;5110782;28;1286;-72
2023/03/24 17:30:53;;;;;;;;;;;11.80;99.90;;;;;;5097587;28;1178;-72
2023/03/24 17:33:19;;;;;;;;;;;11.80;99.90;;;;;;5111891;27;1187;-72
2023/03/24 17:35:45;;;;;;;;;;;11.70;99.90;;;;;;5098351;28;1918;-72
2023/03/24 17:38:13;;;;;;;;;;;11.50;99.90;;;;;;5110529;27;1211;-72
2023/03/24 17:40:39;;;;;;;;;;;11.30;99.90;;;;;;5111105;27;1191;-72
2023/03/24 17:43:05;;;;;;;;;;;11.20;99.90;;;;;;5111830;27;1214;-72
2023/03/24 17:45:31;;;;;;;;;;;11.10;99.90;;;;;;5109526;28;1143;-72
2023/03/24 17:47:57;;;;;;;;;;;11.00;99.90;;;;;;5109365;28;1142;-72
2023/03/24 17:50:24;;;;;;;;;;;10.90;99.90;;;;;;5097952;28;1140;-72